createdAt,value
2022-09-21T00:01:15.354Z,89.57
2022-09-21T00:03:42.662Z,89.05
2022-09-21T00:06:18.190Z,87.04
2022-09-21T00:08:46.059Z,86.36
2022-09-21T00:11:14.827Z,86.13
2022-09-21T00:13:42.134Z,86.10
2022-09-21T00:16:09.409Z,85.84
2022-09-21T00:18:36.496Z,85.65
2022-09-21T00:21:13.930Z,86.17
2022-09-21T00:23:41.273Z,87.17
2022-09-21T00:26:18.861Z,86.86
2022-09-21T00:28:46.071Z,86.38
2022-09-21T00:31:14.849Z,86.06
2022-09-21T00:33:43.406Z,85.48
2022-09-21T00:36:12.658Z,86.08
2022-09-21T00:38:39.302Z,86.62
2022-09-21T00:41:07.583Z,86.27
2022-09-21T00:43:36.133Z,86.00
2022-09-21T00:46:08.310Z,85.73
2022-09-21T00:48:35.579Z,85.19
2022-09-21T00:51:07.878Z,86.36
2022-09-21T00:53:36.352Z,85.72
2022-09-21T00:56:04.578Z,85.40
2022-09-21T00:58:39.050Z,86.63
2022-09-21T01:01:05.634Z,87.15
2022-09-21T01:03:32.817Z,86.63
2022-09-21T01:05:59.232Z,86.91
2022-09-21T01:08:27.557Z,87.25
2022-09-21T01:11:16.034Z,87.64
2022-09-21T01:14:03.265Z,86.38
2022-09-21T01:16:44.368Z,86.58
2022-09-21T01:19:32.602Z,86.04
2022-09-21T01:22:41.926Z,86.21
2022-09-21T01:25:33.048Z,86.55
2022-09-21T01:28:37.181Z,86.98
2022-09-21T01:31:07.462Z,85.57
2022-09-21T01:33:40.927Z,86.18
2022-09-21T01:36:12.470Z,86.77
2022-09-21T01:38:45.840Z,87.35
2022-09-21T01:41:16.369Z,86.56
2022-09-21T01:43:47.980Z,86.46
2022-09-21T01:46:19.226Z,86.69
2022-09-21T01:48:50.105Z,87.05
2022-09-21T01:51:19.761Z,87.31
2022-09-21T01:53:51.187Z,86.90
2022-09-21T01:56:26.708Z,86.98
2022-09-21T01:59:14.525Z,86.98
2022-09-21T02:02:09.307Z,86.77
2022-09-21T02:04:36.101Z,87.47
2022-09-21T02:07:02.636Z,88.31
2022-09-21T02:09:29.663Z,88.46
2022-09-21T02:11:58.158Z,88.01
2022-09-21T02:14:25.580Z,87.52
2022-09-21T02:17:20.922Z,87.89
2022-09-21T02:20:01.607Z,88.10
2022-09-21T02:22:36.217Z,87.38
2022-09-21T02:25:11.111Z,87.71
2022-09-21T02:27:52.828Z,88.51
2022-09-21T02:30:25.271Z,88.71
2022-09-21T02:33:14.923Z,88.32
2022-09-21T02:35:54.244Z,87.18
2022-09-21T02:38:47.110Z,88.22
2022-09-21T02:41:20.185Z,89.66
2022-09-21T02:44:01.984Z,89.29
2022-09-21T02:46:28.374Z,89.22
2022-09-21T02:48:59.823Z,89.23
2022-09-21T02:51:32.198Z,88.69
2022-09-21T02:54:03.756Z,87.95
2022-09-21T02:56:31.701Z,87.59
2022-09-21T02:59:02.161Z,87.71
2022-09-21T03:01:29.494Z,87.50
2022-09-21T03:03:55.964Z,87.49
2022-09-21T03:06:22.429Z,87.13
2022-09-21T03:08:48.966Z,87.90
2022-09-21T03:11:19.390Z,89.07
2022-09-21T03:13:45.969Z,88.81
2022-09-21T03:16:12.934Z,88.69
2022-09-21T03:18:40.283Z,88.54
2022-09-21T03:21:06.964Z,88.89
2022-09-21T03:23:33.567Z,88.31
2022-09-21T03:26:00.010Z,88.34
2022-09-21T03:28:26.699Z,88.33
2022-09-21T03:30:53.281Z,88.00
2022-09-21T03:33:20.714Z,87.75
2022-09-21T03:35:50.849Z,88.62
2022-09-21T03:38:17.820Z,88.98
2022-09-21T03:40:48.980Z,89.81
2022-09-21T03:43:16.008Z,89.28
2022-09-21T03:45:42.764Z,88.94
2022-09-21T03:48:10.747Z,88.59
2022-09-21T03:50:37.614Z,88.21
2022-09-21T03:53:04.464Z,88.89
2022-09-21T03:55:31.630Z,88.88
2022-09-21T03:57:58.134Z,88.73
2022-09-21T04:00:24.678Z,89.00
2022-09-21T04:02:51.659Z,88.69
2022-09-21T04:05:18.322Z,91.01
2022-09-21T04:07:48.011Z,89.71
2022-09-21T04:10:17.691Z,90.42
2022-09-21T04:12:45.863Z,89.18
2022-09-21T04:15:15.080Z,88.98
2022-09-21T04:17:42.005Z,88.82
2022-09-21T04:20:09.457Z,88.88
2022-09-21T04:22:39.952Z,88.75
2022-09-21T04:25:10.938Z,88.46
2022-09-21T04:27:37.533Z,88.36
2022-09-21T04:30:05.024Z,89.02
2022-09-21T04:32:31.555Z,89.55
2022-09-21T04:34:58.205Z,88.94
2022-09-21T04:37:24.631Z,88.86
2022-09-21T04:39:51.044Z,88.32
2022-09-21T04:42:17.456Z,89.52
2022-09-21T04:44:43.909Z,89.90
2022-09-21T04:47:10.422Z,89.07
2022-09-21T04:49:36.884Z,89.76
2022-09-21T04:52:03.376Z,89.32
2022-09-21T04:54:29.885Z,89.63
2022-09-21T04:56:56.952Z,89.27
2022-09-21T04:59:23.590Z,89.83
2022-09-21T05:01:50.119Z,89.97
2022-09-21T05:04:16.561Z,90.53
2022-09-21T05:06:43.019Z,90.29
2022-09-21T05:09:28.053Z,90.61
2022-09-21T05:11:54.490Z,90.01
2022-09-21T05:14:20.938Z,89.64
2022-09-21T05:16:50.047Z,90.12
2022-09-21T05:19:17.307Z,89.96
2022-09-21T05:21:43.979Z,89.90
2022-09-21T05:24:10.472Z,90.17
2022-09-21T05:26:37.644Z,90.74
2022-09-21T05:29:04.726Z,93.01
2022-09-21T05:31:50.496Z,92.57
2022-09-21T05:34:53.223Z,91.94
2022-09-21T05:37:40.860Z,91.92
2022-09-21T05:40:10.012Z,93.13
2022-09-21T05:42:36.858Z,92.75
2022-09-21T05:45:04.149Z,92.77
2022-09-21T05:47:39.251Z,92.88
2022-09-21T05:50:43.083Z,92.70
2022-09-21T05:53:27.162Z,92.19
2022-09-21T05:56:22.461Z,92.01
2022-09-21T05:59:01.763Z,92.26
2022-09-21T06:01:40.444Z,91.35
2022-09-21T06:04:11.585Z,91.29
2022-09-21T06:06:38.068Z,91.01
2022-09-21T06:09:05.020Z,91.90
2022-09-21T06:11:32.197Z,91.13
2022-09-21T06:14:00.816Z,90.78
2022-09-21T06:16:27.339Z,91.01
2022-09-21T06:18:53.797Z,90.64
2022-09-21T06:21:20.496Z,90.55
2022-09-21T06:23:46.988Z,90.89
2022-09-21T06:26:13.530Z,90.53
2022-09-21T06:28:39.940Z,88.09
2022-09-21T06:31:06.369Z,87.73
2022-09-21T06:33:32.934Z,86.14
2022-09-21T06:36:00.213Z,85.60
2022-09-21T06:38:28.187Z,84.32
2022-09-21T06:40:54.722Z,81.93
2022-09-21T06:43:22.023Z,82.19
2022-09-21T06:45:56.210Z,81.76
2022-09-21T06:48:23.735Z,80.84
2022-09-21T06:50:50.957Z,79.67
2022-09-21T06:53:18.022Z,79.75
2022-09-21T06:55:44.462Z,76.64
2022-09-21T06:58:13.647Z,76.22
2022-09-21T07:00:40.064Z,76.05
2022-09-21T07:03:06.531Z,75.52
2022-09-21T07:05:34.173Z,70.49
2022-09-21T07:08:01.214Z,71.64
2022-09-21T07:10:28.440Z,67.14
2022-09-21T07:12:54.976Z,63.26
2022-09-21T07:15:21.551Z,69.33
2022-09-21T07:17:52.204Z,66.39
2022-09-21T07:20:19.011Z,68.03
2022-09-21T07:22:45.433Z,69.71
2022-09-21T07:25:11.886Z,68.77
2022-09-21T07:27:38.645Z,67.21
2022-09-21T07:30:06.589Z,68.70
2022-09-21T07:32:33.193Z,68.73
2022-09-21T07:35:00.136Z,68.09
2022-09-21T07:37:27.279Z,69.58
2022-09-21T07:39:54.156Z,68.92
2022-09-21T07:42:22.727Z,69.17
2022-09-21T07:44:49.512Z,69.92
2022-09-21T07:47:17.458Z,69.23
2022-09-21T07:49:43.909Z,67.30
2022-09-21T07:52:11.242Z,68.27
2022-09-21T07:54:38.083Z,67.57
2022-09-21T07:57:23.320Z,61.88
2022-09-21T07:59:49.732Z,60.66
2022-09-21T08:02:16.462Z,59.69
2022-09-21T08:04:43.066Z,61.74
2022-09-21T08:07:09.467Z,61.79
2022-09-21T08:09:36.096Z,60.49
2022-09-21T08:12:02.615Z,60.25
2022-09-21T08:14:29.279Z,53.90
2022-09-21T08:16:55.814Z,54.76
2022-09-21T08:19:25.596Z,52.91
2022-09-21T08:21:57.293Z,51.41
2022-09-21T08:24:26.633Z,53.00
2022-09-21T08:26:53.744Z,53.29
2022-09-21T08:29:20.311Z,52.90
2022-09-21T08:31:49.809Z,51.83
2022-09-21T08:34:16.387Z,51.49
2022-09-21T08:36:42.813Z,53.09
2022-09-21T08:39:09.313Z,54.45
2022-09-21T08:42:05.171Z,49.20
2022-09-21T08:44:53.862Z,49.60
2022-09-21T08:47:36.880Z,47.70
2022-09-21T08:50:05.954Z,50.62
2022-09-21T08:52:33.569Z,53.01
2022-09-21T08:55:13.124Z,51.01
2022-09-21T08:57:41.947Z,53.32
2022-09-21T09:00:17.392Z,47.72
2022-09-21T09:03:15.461Z,46.75
2022-09-21T09:06:01.457Z,50.72
2022-09-21T09:08:37.075Z,49.75
2022-09-21T09:11:28.447Z,48.52
2022-09-21T09:14:30.038Z,48.25
2022-09-21T09:17:44.224Z,48.87
2022-09-21T09:20:40.206Z,47.12
2022-09-21T09:23:19.607Z,47.76
2022-09-21T09:25:51.703Z,48.32
2022-09-21T09:28:18.161Z,50.66
2022-09-21T09:30:59.120Z,48.19
2022-09-21T09:33:30.761Z,47.84
2022-09-21T09:36:05.899Z,46.48
2022-09-21T09:38:38.606Z,46.52
2022-09-21T09:41:47.712Z,48.49
2022-09-21T09:44:20.645Z,48.63
2022-09-21T09:46:51.063Z,49.12
2022-09-21T09:49:44.244Z,50.41
2022-09-21T09:52:14.884Z,52.76
2022-09-21T09:54:41.419Z,51.57
2022-09-21T09:57:10.883Z,49.95
2022-09-21T09:59:43.650Z,49.83
2022-09-21T10:02:29.327Z,49.46
2022-09-21T10:05:05.799Z,49.21
2022-09-21T10:07:45.922Z,50.19
2022-09-21T10:10:32.727Z,52.85
2022-09-21T10:13:32.943Z,52.83
2022-09-21T10:16:00.948Z,54.66
2022-09-21T10:18:50.288Z,55.07
2022-09-21T10:21:18.585Z,55.38
2022-09-21T10:24:07.379Z,56.98
2022-09-21T10:26:36.743Z,57.74
2022-09-21T10:29:21.589Z,57.69
2022-09-21T10:32:07.434Z,56.73
2022-09-21T10:34:36.597Z,57.15
2022-09-21T10:37:34.858Z,56.99
2022-09-21T10:40:01.775Z,57.70
2022-09-21T10:42:34.053Z,57.52
2022-09-21T10:45:34.730Z,56.36
2022-09-21T10:48:18.193Z,55.72
2022-09-21T10:50:47.191Z,57.28
2022-09-21T10:53:28.266Z,55.63
2022-09-21T10:56:16.827Z,54.52
2022-09-21T10:59:21.821Z,53.88
2022-09-21T11:01:51.692Z,54.48
2022-09-21T11:04:26.066Z,53.79
2022-09-21T11:07:00.750Z,54.38
2022-09-21T11:09:37.910Z,51.19
2022-09-21T11:12:26.963Z,50.76
2022-09-21T11:15:20.947Z,52.23
2022-09-21T11:17:50.403Z,54.20
2022-09-21T11:20:27.993Z,53.16
2022-09-21T11:23:08.645Z,51.43
2022-09-21T11:26:00.476Z,51.00
2022-09-21T11:28:30.907Z,53.71
2022-09-21T11:31:13.202Z,51.35
2022-09-21T11:33:56.073Z,53.07
2022-09-21T11:36:25.575Z,52.23
2022-09-21T11:39:07.323Z,49.99
2022-09-21T11:42:04.792Z,51.31
2022-09-21T11:44:55.926Z,51.74
2022-09-21T11:47:41.343Z,49.73
2022-09-21T11:50:30.590Z,49.56
2022-09-21T11:53:17.050Z,48.66
2022-09-21T11:55:59.457Z,49.04
2022-09-21T11:58:37.291Z,50.87
2022-09-21T12:01:25.479Z,50.54
2022-09-21T12:04:17.610Z,49.81
2022-09-21T12:06:50.211Z,50.51
2022-09-21T12:09:31.558Z,51.44
2022-09-21T12:12:11.927Z,50.89
2022-09-21T12:15:22.369Z,50.92
2022-09-21T12:18:34.204Z,51.52
2022-09-21T12:21:03.527Z,51.02
2022-09-21T12:23:50.908Z,50.80
2022-09-21T12:26:21.900Z,50.98
2022-09-21T12:28:59.113Z,51.14
2022-09-21T12:31:35.686Z,51.55
2022-09-21T12:34:10.289Z,51.10
2022-09-21T12:36:51.183Z,51.05
2022-09-21T12:39:28.253Z,52.98
2022-09-21T12:42:04.804Z,51.40
2022-09-21T12:44:54.391Z,53.15
2022-09-21T12:47:32.648Z,52.30
2022-09-21T12:50:08.097Z,50.40
2022-09-21T12:52:37.445Z,52.49
2022-09-21T12:55:33.479Z,51.03
2022-09-21T12:58:19.774Z,47.46
2022-09-21T13:00:58.293Z,47.50
2022-09-21T13:03:37.215Z,48.70
2022-09-21T13:06:22.472Z,44.05
2022-09-21T13:11:23.463Z,46.88
2022-09-21T13:13:59.405Z,43.60
2022-09-21T13:16:39.550Z,44.08
2022-09-21T13:19:18.284Z,42.17
2022-09-21T13:21:44.800Z,45.21
2022-09-21T13:24:37.415Z,41.38
2022-09-21T13:27:06.597Z,45.82
2022-09-21T13:29:35.410Z,41.51
2022-09-21T13:32:12.406Z,40.45
2022-09-21T13:34:43.548Z,41.33
2022-09-21T13:37:19.023Z,40.66
2022-09-21T13:39:45.503Z,43.03
2022-09-21T13:42:30.213Z,41.14
2022-09-21T13:44:58.145Z,40.72
2022-09-21T13:47:38.446Z,40.24
2022-09-21T13:50:12.544Z,38.28
2022-09-21T13:52:48.112Z,39.83
2022-09-21T13:55:32.659Z,39.60
2022-09-21T13:58:04.768Z,39.33
2022-09-21T14:00:36.113Z,40.94
2022-09-21T14:03:17.354Z,40.82
2022-09-21T14:05:50.394Z,36.81
2022-09-21T14:08:16.776Z,36.86
2022-09-21T14:10:55.231Z,37.61
2022-09-21T14:14:01.203Z,36.97
2022-09-21T14:16:41.749Z,39.76
2022-09-21T14:19:31.957Z,37.38
2022-09-21T14:22:07.455Z,38.37
2022-09-21T14:24:44.863Z,38.70
2022-09-21T14:27:30.269Z,36.54
2022-09-21T14:30:06.196Z,38.99
2022-09-21T14:32:42.358Z,36.88
2022-09-21T14:35:18.538Z,38.36
2022-09-21T14:37:48.905Z,36.15
2022-09-21T14:40:39.074Z,36.25
2022-09-21T14:43:15.557Z,36.29
2022-09-21T14:46:01.738Z,40.08
2022-09-21T14:48:46.732Z,36.05
2022-09-21T14:51:38.258Z,35.22
2022-09-21T14:54:17.413Z,35.87
2022-09-21T14:56:56.569Z,35.55
2022-09-21T14:59:29.856Z,34.85
2022-09-21T15:02:03.432Z,35.18
2022-09-21T15:04:30.987Z,36.20
2022-09-21T15:07:54.532Z,35.32
2022-09-21T15:11:01.617Z,37.58
2022-09-21T15:13:36.259Z,37.42
2022-09-21T15:16:17.287Z,37.87
2022-09-21T15:18:46.865Z,39.00
2022-09-21T15:21:26.246Z,38.19
2022-09-21T15:23:53.412Z,39.76
2022-09-21T15:26:33.276Z,38.74
2022-09-21T15:29:09.963Z,38.65
2022-09-21T15:31:40.605Z,38.41
2022-09-21T15:34:07.890Z,37.05
2022-09-21T15:36:42.782Z,38.46
2022-09-21T15:39:41.451Z,37.92
2022-09-21T15:42:07.834Z,40.83
2022-09-21T15:44:36.746Z,39.03
2022-09-21T15:47:08.436Z,39.71
2022-09-21T15:49:36.339Z,40.51
2022-09-21T15:52:25.350Z,39.41
2022-09-21T15:55:05.152Z,40.48
2022-09-21T15:57:39.204Z,41.65
2022-09-21T16:00:21.355Z,40.98
2022-09-21T16:02:56.041Z,41.06
2022-09-21T16:05:25.311Z,42.13
2022-09-21T16:08:16.574Z,41.79
2022-09-21T16:10:44.626Z,43.10
2022-09-21T16:13:41.261Z,42.24
2022-09-21T16:16:14.675Z,42.53
2022-09-21T16:18:48.470Z,41.59
2022-09-21T16:21:22.578Z,43.31
2022-09-21T16:23:55.429Z,44.20
2022-09-21T16:26:35.456Z,43.76
2022-09-21T16:29:08.284Z,44.09
2022-09-21T16:31:36.151Z,44.85
2022-09-21T16:34:24.817Z,45.05
2022-09-21T16:36:53.947Z,45.22
2022-09-21T16:39:21.027Z,45.69
2022-09-21T16:41:54.093Z,45.72
2022-09-21T16:44:25.437Z,46.28
2022-09-21T16:46:55.267Z,45.49
2022-09-21T16:49:24.852Z,46.04
2022-09-21T16:51:55.790Z,46.42
2022-09-21T16:54:25.162Z,46.19
2022-09-21T16:56:54.253Z,46.85
2022-09-21T16:59:22.962Z,46.85
2022-09-21T17:01:56.560Z,47.45
2022-09-21T17:04:29.258Z,47.42
2022-09-21T17:06:56.204Z,48.10
2022-09-21T17:09:29.546Z,48.21
2022-09-21T17:12:00.185Z,48.58
2022-09-21T17:14:29.241Z,48.80
2022-09-21T17:16:58.545Z,50.18
2022-09-21T17:19:25.355Z,50.99
2022-09-21T17:21:52.060Z,52.67
2022-09-21T17:24:33.078Z,53.06
2022-09-21T17:27:04.903Z,53.41
2022-09-21T17:29:31.385Z,54.21
2022-09-21T17:31:58.505Z,54.26
2022-09-21T17:34:28.000Z,55.94
2022-09-21T17:36:55.321Z,55.85
2022-09-21T17:39:23.971Z,56.41
2022-09-21T17:41:54.989Z,55.30
2022-09-21T17:44:52.401Z,56.84
2022-09-21T17:47:20.482Z,55.95
2022-09-21T17:49:47.830Z,57.02
2022-09-21T17:52:38.465Z,57.92
2022-09-21T17:55:09.941Z,58.29
2022-09-21T17:57:56.642Z,60.32
2022-09-21T18:00:27.438Z,59.68
2022-09-21T18:02:54.725Z,59.67
2022-09-21T18:05:25.724Z,61.14
2022-09-21T18:07:52.906Z,59.88
2022-09-21T18:10:21.272Z,59.83
2022-09-21T18:13:15.157Z,63.70
2022-09-21T18:15:53.673Z,62.35
2022-09-21T18:18:20.191Z,62.89
2022-09-21T18:21:01.968Z,62.54
2022-09-21T18:23:49.783Z,66.05
2022-09-21T18:26:18.083Z,62.81
2022-09-21T18:28:47.269Z,63.79
2022-09-21T18:31:40.116Z,66.15
2022-09-21T18:34:13.276Z,64.02
2022-09-21T18:36:57.491Z,66.46
2022-09-21T18:39:23.880Z,65.03
2022-09-21T18:42:25.619Z,68.53
2022-09-21T18:45:05.620Z,66.39
2022-09-21T18:48:01.978Z,65.77
2022-09-21T18:50:37.840Z,66.25
2022-09-21T18:53:26.272Z,67.00
2022-09-21T18:55:53.112Z,65.78
2022-09-21T18:58:19.882Z,65.47
2022-09-21T19:00:47.065Z,65.94
2022-09-21T19:03:18.631Z,65.94
2022-09-21T19:06:08.139Z,69.38
2022-09-21T19:08:38.928Z,71.86
2022-09-21T19:11:19.533Z,70.86
2022-09-21T19:14:00.402Z,69.65
2022-09-21T19:16:33.185Z,69.87
2022-09-21T19:19:29.996Z,70.20
2022-09-21T19:22:39.955Z,72.45
2022-09-21T19:25:28.157Z,69.09
2022-09-21T19:27:59.267Z,68.12
2022-09-21T19:30:26.106Z,68.25
2022-09-21T19:33:02.508Z,69.23
2022-09-21T19:35:31.383Z,70.96
2022-09-21T19:38:01.409Z,69.42
2022-09-21T19:40:37.272Z,71.38
2022-09-21T19:43:19.178Z,72.54
2022-09-21T19:46:10.338Z,72.96
2022-09-21T19:48:48.541Z,73.08
2022-09-21T19:51:39.356Z,72.71
2022-09-21T19:54:32.653Z,71.86
2022-09-21T19:57:17.920Z,70.48
2022-09-21T19:59:45.091Z,71.87
2022-09-21T20:02:20.500Z,70.55
2022-09-21T20:05:02.165Z,72.65
2022-09-21T20:07:28.567Z,74.05
2022-09-21T20:10:16.862Z,74.09
2022-09-21T20:12:56.796Z,72.67
2022-09-21T20:15:29.675Z,73.73
2022-09-21T20:18:03.133Z,74.26
2022-09-21T20:20:30.063Z,72.70
2022-09-21T20:22:56.763Z,72.58
2022-09-21T20:25:51.216Z,74.64
2022-09-21T20:28:18.183Z,73.32
2022-09-21T20:30:44.934Z,74.83
2022-09-21T20:33:15.272Z,74.04
2022-09-21T20:35:42.830Z,73.80
2022-09-21T20:38:09.991Z,75.12
2022-09-21T20:40:36.552Z,75.34
2022-09-21T20:43:03.107Z,77.28
2022-09-21T20:45:30.403Z,75.39
2022-09-21T20:48:13.119Z,75.28
2022-09-21T20:50:48.018Z,78.73
2022-09-21T20:53:15.580Z,74.76
2022-09-21T20:55:44.021Z,75.26
2022-09-21T20:58:12.606Z,75.92
2022-09-21T21:00:39.275Z,76.18
2022-09-21T21:03:05.707Z,78.13
2022-09-21T21:05:32.779Z,77.87
2022-09-21T21:07:59.233Z,76.75
2022-09-21T21:10:25.817Z,75.80
2022-09-21T21:12:52.327Z,76.13
2022-09-21T21:15:18.808Z,75.86
2022-09-21T21:17:47.199Z,76.76
2022-09-21T21:20:13.783Z,76.69
2022-09-21T21:22:40.319Z,78.38
2022-09-21T21:25:07.147Z,78.56
2022-09-21T21:27:33.574Z,77.90
2022-09-21T21:30:00.243Z,77.60
2022-09-21T21:32:27.283Z,76.82
2022-09-21T21:34:55.081Z,76.85
2022-09-21T21:37:24.474Z,77.00
2022-09-21T21:39:51.878Z,76.49
2022-09-21T21:42:19.197Z,76.64
2022-09-21T21:44:46.638Z,76.99
2022-09-21T21:47:38.657Z,77.42
2022-09-21T21:50:00.809Z,77.13
2022-09-21T21:52:27.252Z,78.94
2022-09-21T21:54:53.678Z,78.97
2022-09-21T21:57:20.484Z,77.32
2022-09-21T21:59:46.960Z,79.31
2022-09-21T22:02:13.415Z,79.90
2022-09-21T22:04:39.965Z,78.99
2022-09-21T22:07:06.360Z,79.40
2022-09-21T22:09:32.793Z,78.93
2022-09-21T22:12:00.952Z,79.83
2022-09-21T22:14:28.252Z,78.96
2022-09-21T22:16:54.728Z,78.54
2022-09-21T22:19:21.237Z,80.47
2022-09-21T22:21:53.240Z,79.44
2022-09-21T22:24:21.248Z,78.64
2022-09-21T22:26:48.620Z,78.83
2022-09-21T22:29:17.072Z,78.83
2022-09-21T22:31:48.827Z,79.30
2022-09-21T22:34:16.065Z,79.88
2022-09-21T22:36:46.201Z,79.94
2022-09-21T22:39:13.118Z,80.41
2022-09-21T22:41:41.592Z,79.34
2022-09-21T22:44:08.948Z,79.41
2022-09-21T22:46:36.399Z,79.76
2022-09-21T22:49:03.203Z,79.57
2022-09-21T22:51:30.348Z,79.55
2022-09-21T22:53:57.839Z,79.21
2022-09-21T22:56:27.402Z,78.68
2022-09-21T22:58:55.780Z,78.95
2022-09-21T23:01:26.456Z,80.06
2022-09-21T23:03:54.632Z,83.33
2022-09-21T23:06:23.135Z,80.43
2022-09-21T23:08:54.965Z,81.08
2022-09-21T23:11:24.396Z,80.44
2022-09-21T23:13:50.874Z,81.48
2022-09-21T23:16:18.069Z,80.95
2022-09-21T23:18:45.129Z,80.77
2022-09-21T23:21:13.957Z,80.29
2022-09-21T23:23:40.951Z,80.00
2022-09-21T23:26:13.120Z,79.82
2022-09-21T23:28:41.791Z,79.97
2022-09-21T23:31:10.657Z,81.25
2022-09-21T23:33:45.178Z,81.29
2022-09-21T23:36:14.105Z,80.82
2022-09-21T23:38:40.975Z,81.90
2022-09-21T23:41:13.017Z,82.58
2022-09-21T23:43:40.911Z,81.44
2022-09-21T23:46:09.366Z,81.59
2022-09-21T23:48:36.403Z,82.93
2022-09-21T23:51:02.960Z,82.23
2022-09-21T23:53:30.032Z,81.57
2022-09-21T23:55:57.598Z,81.95
2022-09-21T23:58:25.336Z,82.62
